createdAt,value
2023-07-22T00:00:37.811Z,3.85
2023-07-22T00:03:50.812Z,3.43
2023-07-22T00:06:50.770Z,4.03
2023-07-22T00:10:03.763Z,4.73
2023-07-22T00:13:17.774Z,4.27
2023-07-22T00:16:30.017Z,4.25
2023-07-22T00:19:29.853Z,4.00
2023-07-22T00:22:41.861Z,4.00
2023-07-22T00:25:41.826Z,4.00
2023-07-22T00:29:08.858Z,4.43
2023-07-22T00:32:08.848Z,3.97
2023-07-22T00:35:22.875Z,4.60
2023-07-22T00:38:23.950Z,4.47
2023-07-22T00:41:35.852Z,4.25
2023-07-22T00:44:49.917Z,4.27
2023-07-22T00:48:14.879Z,4.23
2023-07-22T00:51:14.965Z,4.10
2023-07-22T00:54:26.964Z,4.60
2023-07-22T00:57:51.948Z,4.00
2023-07-22T01:01:18.981Z,3.80
2023-07-22T01:04:30.947Z,3.95
2023-07-22T01:07:55.956Z,4.77
2023-07-22T01:10:55.989Z,4.83
2023-07-22T01:14:08.970Z,4.53
2023-07-22T01:17:23.080Z,4.70
2023-07-22T01:20:47.037Z,5.10
2023-07-22T01:24:01.064Z,5.07
2023-07-22T01:27:25.033Z,4.40
2023-07-22T01:30:26.028Z,4.07
2023-07-22T01:33:39.012Z,4.17
2023-07-22T01:36:40.036Z,4.45
2023-07-22T01:40:06.110Z,5.00
2023-07-22T01:43:07.038Z,5.10
2023-07-22T01:46:20.156Z,4.15
2023-07-22T01:49:32.095Z,4.73
2023-07-22T01:52:44.122Z,4.90
2023-07-22T01:55:58.120Z,4.70
2023-07-22T01:59:10.185Z,4.60
2023-07-22T02:02:10.124Z,5.50
2023-07-22T02:05:35.106Z,4.37
2023-07-22T02:08:36.132Z,5.57
2023-07-22T02:12:02.219Z,4.90
2023-07-22T02:15:02.170Z,4.25
2023-07-22T02:18:15.204Z,4.77
2023-07-22T02:21:15.234Z,6.27
2023-07-22T02:24:39.312Z,5.27
2023-07-22T02:27:54.203Z,5.40
2023-07-22T02:31:19.241Z,5.90
2023-07-22T02:34:19.256Z,5.57
2023-07-22T02:37:32.194Z,5.20
2023-07-22T02:40:32.267Z,5.25
2023-07-22T02:43:57.311Z,5.75
2023-07-22T02:46:57.292Z,5.90
2023-07-22T02:50:09.280Z,5.30
2023-07-22T02:53:09.345Z,4.97
2023-07-22T02:56:29.554Z,4.70
2023-07-22T02:59:55.319Z,5.43
2023-07-22T03:03:19.346Z,4.75
2023-07-22T03:06:32.364Z,5.10
2023-07-22T03:09:44.373Z,5.17
2023-07-22T03:12:44.415Z,6.17
2023-07-22T03:16:10.342Z,6.00
2023-07-22T03:19:22.342Z,4.85
2023-07-22T03:22:34.399Z,4.65
2023-07-22T03:25:35.368Z,5.15
2023-07-22T03:28:59.626Z,5.53
2023-07-22T03:32:14.357Z,4.47
2023-07-22T03:35:26.418Z,4.90
2023-07-22T03:38:26.449Z,5.60
2023-07-22T03:41:38.518Z,4.30
2023-07-22T03:44:38.428Z,4.90
2023-07-22T03:48:04.555Z,4.85
2023-07-22T03:51:18.913Z,5.03
2023-07-22T03:54:16.515Z,5.20
2023-07-22T03:57:17.553Z,4.57
2023-07-22T04:00:29.547Z,4.85
2023-07-22T04:03:56.579Z,5.10
2023-07-22T04:06:56.508Z,4.85
2023-07-22T04:10:08.611Z,4.93
2023-07-22T04:13:08.548Z,4.97
2023-07-22T04:16:20.584Z,6.27
2023-07-22T04:19:34.599Z,5.20
2023-07-22T04:22:47.555Z,5.37
2023-07-22T04:26:11.620Z,5.10
2023-07-22T04:29:24.568Z,5.05
2023-07-22T04:32:38.597Z,5.43
2023-07-22T04:36:05.574Z,4.80
2023-07-22T04:39:05.636Z,5.35
2023-07-22T04:42:19.625Z,4.45
2023-07-22T04:45:20.605Z,5.55
2023-07-22T04:48:45.686Z,4.40
2023-07-22T04:51:59.668Z,5.30
2023-07-22T04:55:12.678Z,4.60
2023-07-22T04:58:12.679Z,5.10
2023-07-22T05:01:25.701Z,4.60
2023-07-22T05:04:26.730Z,5.03
2023-07-22T05:07:52.687Z,4.45
2023-07-22T05:11:04.669Z,4.40
2023-07-22T05:14:17.710Z,5.20
2023-07-22T05:17:18.755Z,4.45
2023-07-22T05:20:31.728Z,6.10
2023-07-22T05:23:57.773Z,5.37
2023-07-22T05:27:10.292Z,4.65
2023-07-22T05:30:16.219Z,5.37
2023-07-22T05:33:22.842Z,5.50
2023-07-22T05:36:22.770Z,5.07
2023-07-22T05:39:48.790Z,5.75
2023-07-22T05:42:48.873Z,6.13
2023-07-22T05:46:00.878Z,5.45
2023-07-22T05:49:00.794Z,7.23
2023-07-22T05:52:12.849Z,5.50
2023-07-22T05:55:25.827Z,5.83
2023-07-22T05:58:37.898Z,6.10
2023-07-22T06:01:49.909Z,6.40
2023-07-22T06:05:05.895Z,6.73
2023-07-22T06:08:05.896Z,6.45
2023-07-22T06:11:31.879Z,6.20
2023-07-22T06:14:31.891Z,7.20
2023-07-22T06:17:43.952Z,7.63
2023-07-22T06:20:44.892Z,6.55
2023-07-22T06:23:56.932Z,7.20
2023-07-22T06:27:11.000Z,8.40
2023-07-22T06:30:35.934Z,6.60
2023-07-22T06:33:35.952Z,7.87
2023-07-22T06:36:48.029Z,7.90
2023-07-22T06:39:47.943Z,6.20
2023-07-22T06:43:14.012Z,8.40
2023-07-22T06:46:14.095Z,7.80
2023-07-22T06:49:26.995Z,7.60
2023-07-22T06:52:39.024Z,8.50
2023-07-22T06:55:51.001Z,7.13
2023-07-22T06:59:05.045Z,8.60
2023-07-22T07:02:30.060Z,9.10
2023-07-22T07:05:31.101Z,8.40
2023-07-22T07:08:43.097Z,7.67
2023-07-22T07:11:55.117Z,9.33
2023-07-22T07:15:21.105Z,8.20
2023-07-22T07:18:21.180Z,7.63
2023-07-22T07:21:45.085Z,7.80
2023-07-22T07:24:45.187Z,8.70
2023-07-22T07:27:57.149Z,8.10
2023-07-22T07:31:10.136Z,9.37
2023-07-22T07:34:23.138Z,9.27
2023-07-22T07:37:23.350Z,8.77
2023-07-22T07:40:35.151Z,9.05
2023-07-22T07:43:35.144Z,9.70
2023-07-22T07:46:49.288Z,9.00
2023-07-22T07:49:49.239Z,8.57
2023-07-22T07:53:02.198Z,9.20
2023-07-22T07:56:02.214Z,8.80
2023-07-22T07:59:16.165Z,8.40
2023-07-22T08:02:30.342Z,8.57
2023-07-22T08:05:42.230Z,8.40
2023-07-22T08:08:54.250Z,9.27
2023-07-22T08:12:06.284Z,8.63
2023-07-22T08:15:18.325Z,8.20
2023-07-22T08:18:44.282Z,7.43
2023-07-22T08:21:44.281Z,7.63
2023-07-22T08:24:57.975Z,8.97
2023-07-22T08:27:57.396Z,6.93
2023-07-22T08:31:24.420Z,6.70
2023-07-22T08:34:37.319Z,6.73
2023-07-22T08:37:49.337Z,5.97
2023-07-22T08:41:01.361Z,6.20
2023-07-22T08:44:25.404Z,6.57
2023-07-22T08:47:37.437Z,5.93
2023-07-22T08:51:04.364Z,6.17
2023-07-22T08:54:17.426Z,6.60
2023-07-22T08:57:41.428Z,7.03
2023-07-22T09:00:53.532Z,6.50
2023-07-22T09:04:18.402Z,5.50
2023-07-22T09:07:32.398Z,5.90
2023-07-22T09:10:57.466Z,5.80
2023-07-22T09:14:10.992Z,5.73
2023-07-22T09:17:22.490Z,5.33
2023-07-22T09:20:35.537Z,5.20
2023-07-22T09:24:02.514Z,5.67
2023-07-22T09:27:14.588Z,5.43
2023-07-22T09:30:47.574Z,5.57
2023-07-22T09:33:59.483Z,5.60
2023-07-22T09:37:23.568Z,5.33
2023-07-22T09:40:45.610Z,4.93
2023-07-22T09:44:09.569Z,5.83
2023-07-22T09:47:09.606Z,4.47
2023-07-22T09:50:35.614Z,4.37
2023-07-22T09:53:37.563Z,4.25
2023-07-22T09:57:09.582Z,3.90
2023-07-22T10:00:12.572Z,4.27
2023-07-22T10:03:37.643Z,3.87
2023-07-22T10:06:49.589Z,3.83
2023-07-22T10:10:14.626Z,4.90
2023-07-22T10:13:28.672Z,4.30
2023-07-22T10:16:53.738Z,4.40
2023-07-22T10:20:05.614Z,4.85
2023-07-22T10:23:30.720Z,4.53
2023-07-22T10:26:47.209Z,3.90
2023-07-22T10:30:07.672Z,4.37
2023-07-22T10:33:19.666Z,4.60
2023-07-22T10:36:44.752Z,4.20
2023-07-22T10:39:45.782Z,4.47
2023-07-22T10:43:16.698Z,4.60
2023-07-22T10:46:31.769Z,4.00
2023-07-22T10:50:07.790Z,4.70
2023-07-22T10:53:19.806Z,4.65
2023-07-22T10:56:44.736Z,4.77
2023-07-22T10:59:57.795Z,4.53
2023-07-22T11:03:38.835Z,4.77
2023-07-22T11:06:50.832Z,4.60
2023-07-22T11:10:17.965Z,4.87
2023-07-22T11:13:18.828Z,4.10
2023-07-22T11:16:31.981Z,4.70
2023-07-22T11:19:45.858Z,4.43
2023-07-22T11:22:57.866Z,4.30
2023-07-22T11:26:10.896Z,4.73
2023-07-22T11:29:34.923Z,4.63
2023-07-22T11:32:34.922Z,4.30
2023-07-22T11:36:01.911Z,4.77
2023-07-22T11:39:14.942Z,4.63
2023-07-22T11:42:26.924Z,5.23
2023-07-22T11:45:39.000Z,4.60
2023-07-22T11:48:51.935Z,5.30
2023-07-22T11:52:05.928Z,5.03
2023-07-22T11:55:26.890Z,5.30
2023-07-22T11:58:30.933Z,5.00
2023-07-22T12:01:55.986Z,4.00
2023-07-22T12:05:19.985Z,4.10
2023-07-22T12:08:33.957Z,4.57
2023-07-22T12:11:59.029Z,3.77
2023-07-22T12:14:59.009Z,4.23
2023-07-22T12:18:23.088Z,3.87
2023-07-22T12:21:23.049Z,4.03
2023-07-22T12:24:53.001Z,3.43
2023-07-22T12:27:53.117Z,4.13
2023-07-22T12:31:05.056Z,3.40
2023-07-22T12:34:05.039Z,3.47
2023-07-22T12:37:18.100Z,3.40
2023-07-22T12:40:33.163Z,4.13
2023-07-22T12:43:45.175Z,4.10
2023-07-22T12:46:45.189Z,4.00
2023-07-22T12:49:57.100Z,3.70
2023-07-22T12:52:57.154Z,4.37
2023-07-22T12:56:24.218Z,3.40
2023-07-22T12:59:24.119Z,3.83
2023-07-22T13:02:37.285Z,3.53
2023-07-22T13:05:49.756Z,4.00
2023-07-22T13:09:01.251Z,3.73
2023-07-22T13:12:15.249Z,3.63
2023-07-22T13:15:40.331Z,3.57
2023-07-22T13:18:40.254Z,3.43
2023-07-22T13:21:52.173Z,3.53
2023-07-22T13:24:52.242Z,3.63
2023-07-22T13:28:19.300Z,2.50
2023-07-22T13:31:19.277Z,3.13
2023-07-22T13:34:31.286Z,2.77
2023-07-22T13:37:31.303Z,2.80
2023-07-22T13:40:43.305Z,3.20
2023-07-22T13:43:57.247Z,3.50
2023-07-22T13:47:09.350Z,3.30
2023-07-22T13:50:09.379Z,3.17
2023-07-22T13:53:21.334Z,3.10
2023-07-22T13:56:21.296Z,3.50
2023-07-22T13:59:47.319Z,3.40
2023-07-22T14:02:47.509Z,3.10
2023-07-22T14:06:11.382Z,3.83
2023-07-22T14:09:11.348Z,2.67
2023-07-22T14:12:23.372Z,3.73
2023-07-22T14:15:37.422Z,2.80
2023-07-22T14:18:49.619Z,3.63
2023-07-22T14:21:49.418Z,3.87
2023-07-22T14:25:02.430Z,3.50
2023-07-22T14:28:03.437Z,3.50
2023-07-22T14:31:30.801Z,4.20
2023-07-22T14:34:30.448Z,4.27
2023-07-22T14:37:42.501Z,3.73
2023-07-22T14:40:54.489Z,4.30
2023-07-22T14:44:09.472Z,4.37
2023-07-22T14:47:23.495Z,4.13
2023-07-22T14:50:47.473Z,4.70
2023-07-22T14:53:48.484Z,4.40
2023-07-22T14:57:00.495Z,4.30
2023-07-22T15:00:00.498Z,4.30
2023-07-22T15:03:26.635Z,3.90
2023-07-22T15:06:26.549Z,3.93
2023-07-22T15:09:51.592Z,3.97
2023-07-22T15:12:51.813Z,4.10
2023-07-22T15:16:17.649Z,3.97
2023-07-22T15:19:31.650Z,4.00
2023-07-22T15:22:44.723Z,4.07
2023-07-22T15:25:44.677Z,3.50
2023-07-22T15:28:56.630Z,3.50
2023-07-22T15:31:57.597Z,3.87
2023-07-22T15:35:24.857Z,3.77
2023-07-22T15:38:23.648Z,4.20
2023-07-22T15:41:36.695Z,3.53
2023-07-22T15:44:36.654Z,3.55
2023-07-22T15:47:49.709Z,3.50
2023-07-22T15:51:03.694Z,3.87
2023-07-22T15:54:15.714Z,3.83
2023-07-22T15:57:15.746Z,3.77
2023-07-22T16:00:39.746Z,3.63
2023-07-22T16:03:51.836Z,3.80
2023-07-22T16:07:05.752Z,3.60
2023-07-22T16:10:31.786Z,3.93
2023-07-22T16:13:31.807Z,3.73
2023-07-22T16:16:46.848Z,4.00
2023-07-22T16:19:46.751Z,3.90
2023-07-22T16:23:13.777Z,3.67
2023-07-22T16:26:25.777Z,3.87
2023-07-22T16:29:38.863Z,3.90
2023-07-22T16:32:38.812Z,4.10
2023-07-22T16:35:51.818Z,3.73
2023-07-22T16:39:05.791Z,3.90
2023-07-22T16:42:18.849Z,3.67
2023-07-22T16:45:31.886Z,3.40
2023-07-22T16:48:43.861Z,4.07
2023-07-22T16:51:43.892Z,3.83
2023-07-22T16:55:10.900Z,3.80
2023-07-22T16:58:10.856Z,3.93
2023-07-22T17:01:22.970Z,3.77
2023-07-22T17:04:22.942Z,3.43
2023-07-22T17:07:35.928Z,3.65
2023-07-22T17:10:49.903Z,3.60
2023-07-22T17:14:03.949Z,4.30
2023-07-22T17:17:03.996Z,3.53
2023-07-22T17:20:16.929Z,3.70
2023-07-22T17:23:16.982Z,3.87
2023-07-22T17:26:42.946Z,3.97
2023-07-22T17:29:43.061Z,3.80
2023-07-22T17:32:56.071Z,3.95
2023-07-22T17:36:07.949Z,3.43
2023-07-22T17:39:20.073Z,4.20
2023-07-22T17:42:33.990Z,3.87
2023-07-22T17:45:58.078Z,4.60
2023-07-22T17:48:58.075Z,3.80
2023-07-22T17:52:10.051Z,3.87
2023-07-22T17:55:10.074Z,3.90
2023-07-22T17:58:36.068Z,4.10
2023-07-22T18:01:36.198Z,4.40
2023-07-22T18:05:00.144Z,2.90
2023-07-22T18:08:00.149Z,3.37
2023-07-22T18:11:12.113Z,3.53
2023-07-22T18:14:26.180Z,3.53
2023-07-22T18:17:38.158Z,3.03
2023-07-22T18:20:38.160Z,3.57
2023-07-22T18:23:51.147Z,3.50
2023-07-22T18:26:51.147Z,3.50
2023-07-22T18:30:18.230Z,3.70
2023-07-22T18:33:18.174Z,3.97
2023-07-22T18:36:32.159Z,3.40
2023-07-22T18:39:32.194Z,3.53
2023-07-22T18:42:45.215Z,3.10
2023-07-22T18:45:58.249Z,3.63
2023-07-22T18:49:10.300Z,3.00
2023-07-22T18:52:10.273Z,3.23
2023-07-22T18:55:22.245Z,3.00
2023-07-22T18:58:22.337Z,3.23
2023-07-22T19:01:50.273Z,3.50
2023-07-22T19:04:50.342Z,3.50
2023-07-22T19:08:03.303Z,4.00
2023-07-22T19:11:16.302Z,3.65
2023-07-22T19:14:29.287Z,3.70
2023-07-22T19:17:43.337Z,3.50
2023-07-22T19:20:55.358Z,3.07
2023-07-22T19:23:55.317Z,3.60
2023-07-22T19:27:08.334Z,3.10
2023-07-22T19:30:09.429Z,3.05
2023-07-22T19:33:39.384Z,3.53
2023-07-22T19:36:39.372Z,3.13
2023-07-22T19:40:03.426Z,3.63
2023-07-22T19:43:03.365Z,3.83
2023-07-22T19:46:32.512Z,4.13
2023-07-22T19:49:49.454Z,3.57
2023-07-22T19:53:03.401Z,3.60
2023-07-22T19:56:18.468Z,2.97
2023-07-22T19:59:31.424Z,4.27
2023-07-22T20:02:31.503Z,3.77
2023-07-22T20:05:57.419Z,4.13
2023-07-22T20:08:58.468Z,3.97
2023-07-22T20:12:11.464Z,4.40
2023-07-22T20:15:11.557Z,4.47
2023-07-22T20:18:23.519Z,4.40
2023-07-22T20:21:37.585Z,4.17
2023-07-22T20:24:49.567Z,4.13
2023-07-22T20:27:49.526Z,4.30
2023-07-22T20:31:03.598Z,4.85
2023-07-22T20:34:03.588Z,4.83
2023-07-22T20:37:29.664Z,4.77
2023-07-22T20:40:29.581Z,4.90
2023-07-22T20:43:41.588Z,4.73
2023-07-22T20:46:41.655Z,5.03
2023-07-22T20:50:06.715Z,4.00
2023-07-22T20:53:20.598Z,4.07
2023-07-22T20:56:32.743Z,4.23
2023-07-22T20:59:32.626Z,4.50
2023-07-22T21:02:45.680Z,4.37
2023-07-22T21:05:45.639Z,4.80
2023-07-22T21:09:11.725Z,3.50
2023-07-22T21:12:11.736Z,4.50
2023-07-22T21:15:24.696Z,5.27
2023-07-22T21:18:24.751Z,4.70
2023-07-22T21:21:37.808Z,4.20
2023-07-22T21:24:51.751Z,4.23
2023-07-22T21:28:17.897Z,4.40
2023-07-22T21:31:16.960Z,4.20
2023-07-22T21:34:28.786Z,3.47
2023-07-22T21:37:28.795Z,4.23
2023-07-22T21:40:54.801Z,3.70
2023-07-22T21:43:55.757Z,4.03
2023-07-22T21:47:20.844Z,3.67
2023-07-22T21:50:33.775Z,4.05
2023-07-22T21:53:45.796Z,3.85
2023-07-22T21:56:58.780Z,3.77
2023-07-22T22:00:24.942Z,4.73
2023-07-22T22:03:37.864Z,3.63
2023-07-22T22:06:37.898Z,3.83
2023-07-22T22:09:50.862Z,3.20
2023-07-22T22:13:04.887Z,3.23
2023-07-22T22:16:17.963Z,3.00
2023-07-22T22:19:18.178Z,3.13
2023-07-22T22:22:42.844Z,2.97
2023-07-22T22:25:42.964Z,3.13
2023-07-22T22:29:09.024Z,2.95
2023-07-22T22:32:08.901Z,2.70
2023-07-22T22:35:33.985Z,3.20
2023-07-22T22:38:34.018Z,3.10
2023-07-22T22:41:46.929Z,2.37
2023-07-22T22:45:01.070Z,2.90
2023-07-22T22:48:25.999Z,2.53
2023-07-22T22:51:27.209Z,2.83
2023-07-22T22:54:40.032Z,2.93
2023-07-22T22:57:40.002Z,3.37
2023-07-22T23:01:05.977Z,2.90
2023-07-22T23:04:06.032Z,3.47
2023-07-22T23:07:19.004Z,2.77
2023-07-22T23:10:20.005Z,3.23
2023-07-22T23:13:33.326Z,2.90
2023-07-22T23:16:48.050Z,2.90
2023-07-22T23:20:03.033Z,3.07
2023-07-22T23:23:03.079Z,3.43
2023-07-22T23:26:15.078Z,3.13
2023-07-22T23:29:16.081Z,3.13
2023-07-22T23:32:43.109Z,3.53
2023-07-22T23:35:43.091Z,2.90
2023-07-22T23:39:07.144Z,3.47
2023-07-22T23:42:07.184Z,3.73
2023-07-22T23:45:20.172Z,3.60
2023-07-22T23:48:34.163Z,3.80
2023-07-22T23:51:46.198Z,3.40
2023-07-22T23:54:46.175Z,3.57
2023-07-22T23:57:58.228Z,3.60
